Time;durP1;ratioP1;P1;durP2;ratioP2;P2;SDS_P1;SDS_P2;PMS_P1;PMS_P2;Temp;Humidity;BMP_temperature;BMP_pressure;BME280_temperature;BME280_humidity;BME280_pressure;Samples;Min_cycle;Max_cycle;Signal;HPM_P1;HPM_P2
2021/03/15 00:01:31;;;;;;;16.25;3.38;;;17.30;52.20;;;;;;4860748;29;20174;-84
2021/03/15 00:03:59;;;;;;;17.05;3.40;;;17.30;51.90;;;;;;4845062;29;20175;-85
2021/03/15 00:06:27;;;;;;;14.55;3.15;;;17.40;52.20;;;;;;4860656;29;20180;-85
2021/03/15 00:09:00;;;;;;;14.48;2.92;;;17.30;52.20;;;;;;4844551;29;20175;-84
2021/03/15 00:11:31;;;;;;;13.07;2.80;;;17.30;52.20;;;;;;4860590;29;20157;-85
2021/03/15 00:14:02;;;;;;;9.65;3.00;;;17.30;52.30;;;;;;4875522;29;20164;-85
2021/03/15 00:16:31;;;;;;;19.58;3.20;;;17.20;52.40;;;;;;4875571;29;20176;-84
2021/03/15 00:19:01;;;;;;;11.55;2.90;;;17.20;52.40;;;;;;4860169;29;20188;-85
2021/03/15 00:21:31;;;;;;;13.60;3.63;;;17.20;52.30;;;;;;4891452;29;20221;-85
2021/03/15 00:24:01;;;;;;;11.02;2.78;;;17.20;52.50;;;;;;4845449;29;20164;-85
2021/03/15 00:26:34;;;;;;;11.50;2.83;;;17.20;52.40;;;;;;4845206;29;20168;-84
2021/03/15 00:29:00;;;;;;;12.30;2.85;;;17.20;52.50;;;;;;4844762;29;20164;-85
2021/03/15 00:31:26;;;;;;;10.35;3.33;;;17.20;52.50;;;;;;4861911;29;20153;-85
2021/03/15 00:34:08;;;;;;;14.07;2.88;;;17.20;52.50;;;;;;4863816;29;20168;-84
2021/03/15 00:36:39;;;;;;;10.88;2.35;;;17.20;52.30;;;;;;4848364;29;20282;-85
2021/03/15 00:39:09;;;;;;;12.95;2.90;;;17.20;52.30;;;;;;4863566;29;20220;-85
2021/03/15 00:41:36;;;;;;;13.57;2.53;;;17.20;52.40;;;;;;4878632;29;20236;-85
2021/03/15 00:44:04;;;;;;;13.05;3.28;;;17.20;52.30;;;;;;4863168;29;20161;-85
2021/03/15 00:46:33;;;;;;;14.57;3.47;;;17.20;52.50;;;;;;4863421;29;20234;-85
2021/03/15 00:49:06;;;;;;;12.10;2.90;;;17.20;52.40;;;;;;4864294;29;20238;-84
2021/03/15 00:51:35;;;;;;;13.32;3.08;;;17.20;52.40;;;;;;4878225;29;20217;-85
2021/03/15 00:54:02;;;;;;;11.50;3.10;;;17.10;52.10;;;;;;4879074;29;20613;-85
2021/03/15 00:56:29;;;;;;;11.32;2.95;;;17.20;52.40;;;;;;4879006;29;20160;-84
2021/03/15 00:59:03;;;;;;;9.77;2.78;;;17.10;52.30;;;;;;4862815;29;20173;-84
2021/03/15 01:01:29;;;;;;;11.50;2.85;;;17.20;52.30;;;;;;4878801;29;20245;-85
2021/03/15 01:04:03;;;;;;;14.82;3.00;;;17.20;52.40;;;;;;4863118;29;20172;-85
2021/03/15 01:06:33;;;;;;;14.68;2.95;;;17.20;52.20;;;;;;4848118;29;20177;-85
2021/03/15 01:08:58;;;;;;;9.50;2.78;;;17.20;52.30;;;;;;4848276;29;20180;-85
2021/03/15 01:11:29;;;;;;;14.73;3.25;;;17.20;52.50;;;;;;4847573;29;20173;-84
2021/03/15 01:13:58;;;;;;;11.23;3.20;;;17.20;52.30;;;;;;4863157;29;20225;-84
2021/03/15 01:16:25;;;;;;;12.82;3.00;;;17.10;52.40;;;;;;4847609;29;20175;-84
2021/03/15 01:18:58;;;;;;;11.05;3.08;;;17.10;52.60;;;;;;4862670;29;20160;-85
2021/03/15 01:21:29;;;;;;;14.70;2.85;;;17.10;52.40;;;;;;4862913;29;20149;-84
2021/03/15 01:23:58;;;;;;;13.43;2.80;;;17.10;52.40;;;;;;4847175;29;20184;-85
2021/03/15 01:26:26;;;;;;;10.95;2.90;;;17.10;52.40;;;;;;4878900;29;20179;-84
2021/03/15 01:28:53;;;;;;;13.52;2.50;;;17.10;52.40;;;;;;4847042;29;20197;-85
2021/03/15 01:31:26;;;;;;;9.90;2.50;;;17.10;52.40;;;;;;4863437;29;20197;-85
2021/03/15 01:33:57;;;;;;;12.20;3.15;;;17.10;52.50;;;;;;4878167;29;20243;-85
2021/03/15 01:36:30;;;;;;;16.05;3.38;;;17.10;52.40;;;;;;4863707;29;20172;-85
2021/03/15 01:38:58;;;;;;;10.10;2.65;;;17.10;52.40;;;;;;4862912;29;20152;-84
2021/03/15 01:41:23;;;;;;;12.52;2.90;;;17.10;52.30;;;;;;4862947;29;20248;-85
2021/03/15 01:43:56;;;;;;;7.38;3.00;;;17.10;52.30;;;;;;4861692;29;20168;-84
2021/03/15 01:46:22;;;;;;;14.93;2.90;;;17.10;52.30;;;;;;4862834;29;20219;-85
2021/03/15 01:48:56;;;;;;;13.52;2.85;;;17.10;52.20;;;;;;4863321;29;20175;-85
2021/03/15 01:51:24;;;;;;;10.93;2.75;;;17.10;52.30;;;;;;4861995;29;20218;-85
2021/03/15 01:53:51;;;;;;;11.52;2.70;;;17.10;52.30;;;;;;4862365;29;20172;-85
2021/03/15 01:56:17;;;;;;;11.40;2.85;;;17.10;52.20;;;;;;4847975;29;20308;-84
2021/03/15 01:58:49;;;;;;;10.15;2.72;;;17.10;52.40;;;;;;4862245;29;20176;-84
2021/03/15 02:01:15;;;;;;;9.63;2.80;;;17.10;52.20;;;;;;4877744;29;20180;-85
2021/03/15 02:03:45;;;;;;;10.75;3.08;;;17.10;52.30;;;;;;4861821;29;20156;-85
2021/03/15 02:06:17;;;;;;;9.95;3.08;;;17.10;52.30;;;;;;4847679;29;20260;-85
2021/03/15 02:08:44;;;;;;;11.48;2.92;;;17.10;52.30;;;;;;4861645;29;20197;-84
2021/03/15 02:11:25;;;;;;;12.45;2.67;;;17.10;52.30;;;;;;4862669;29;20179;-85
2021/03/15 02:14:13;;;;;;;11.60;2.47;;;17.10;52.10;;;;;;4878082;29;20180;-85
2021/03/15 02:16:54;;;;;;;9.05;3.00;;;17.10;52.10;;;;;;4894251;29;20168;-85
2021/03/15 02:19:39;;;;;;;11.63;2.58;;;17.10;52.10;;;;;;4877423;29;20165;-85
2021/03/15 02:22:28;;;;;;;15.25;2.90;;;17.10;52.10;;;;;;4893943;29;20176;-84
2021/03/15 02:25:13;;;;;;;9.38;2.60;;;17.10;52.20;;;;;;4877271;29;20169;-85
2021/03/15 02:28:01;;;;;;;16.45;2.88;;;17.10;52.20;;;;;;4861398;29;20167;-84
2021/03/15 02:31:05;;;;;;;10.60;2.92;;;17.10;52.30;;;;;;4893392;29;20188;-85
2021/03/15 02:34:09;;;;;;;10.23;2.60;;;17.10;52.10;;;;;;4877318;29;20175;-85
2021/03/15 02:36:42;;;;;;;11.60;3.05;;;17.10;52.20;;;;;;4879865;29;20171;-85
2021/03/15 02:39:18;;;;;;;10.80;2.55;;;17.10;52.20;;;;;;4846388;29;20647;-85
2021/03/15 02:41:48;;;;;;;6.38;2.63;;;17.10;52.20;;;;;;4861460;29;20174;-85
2021/03/15 02:44:14;;;;;;;8.20;2.50;;;17.10;52.20;;;;;;4876799;29;20261;-84
2021/03/15 02:46:41;;;;;;;9.18;2.42;;;17.10;52.20;;;;;;4860934;29;20238;-85
2021/03/15 02:49:15;;;;;;;9.57;2.78;;;17.00;52.20;;;;;;4846175;29;20192;-84
2021/03/15 02:51:42;;;;;;;7.78;2.63;;;17.00;52.10;;;;;;4861716;29;20168;-84
2021/03/15 02:54:08;;;;;;;9.68;2.70;;;17.00;52.00;;;;;;4860929;29;20220;-84
2021/03/15 02:56:39;;;;;;;11.25;2.90;;;17.00;52.10;;;;;;4860763;29;20264;-84
2021/03/15 02:59:14;;;;;;;10.07;2.75;;;17.00;52.10;;;;;;4861209;29;20160;-84
2021/03/15 03:01:40;;;;;;;11.52;2.90;;;17.10;52.10;;;;;;4845889;29;20174;-85
2021/03/15 03:04:08;;;;;;;8.82;2.75;;;17.00;52.10;;;;;;4860542;29;20165;-85
2021/03/15 03:06:36;;;;;;;10.75;2.80;;;17.10;52.10;;;;;;4861811;29;20165;-85
2021/03/15 03:09:13;;;;;;;10.77;2.70;;;17.10;52.10;;;;;;4861589;29;20157;-84
2021/03/15 03:11:41;;;;;;;12.27;2.88;;;17.00;52.10;;;;;;4860886;29;20195;-85
2021/03/15 03:14:12;;;;;;;8.30;2.60;;;17.00;52.10;;;;;;4876137;29;20164;-85
2021/03/15 03:16:40;;;;;;;12.35;2.70;;;17.00;52.10;;;;;;4860912;29;20172;-84
2021/03/15 03:19:14;;;;;;;8.25;2.33;;;17.00;52.10;;;;;;4861012;29;20189;-85
2021/03/15 03:21:50;;;;;;;9.02;2.30;;;17.00;52.10;;;;;;4875716;29;20168;-85
2021/03/15 03:24:20;;;;;;;11.07;2.78;;;17.00;52.20;;;;;;4876890;29;20160;-85
2021/03/15 03:26:54;;;;;;;7.40;2.38;;;17.00;52.10;;;;;;4875496;29;20184;-85
2021/03/15 03:29:22;;;;;;;8.75;2.75;;;17.00;52.10;;;;;;4860628;29;20178;-85
2021/03/15 03:31:51;;;;;;;9.57;2.45;;;17.00;52.10;;;;;;4860957;29;20183;-85
2021/03/15 03:34:33;;;;;;;10.32;2.92;;;17.00;52.10;;;;;;4860355;29;20544;-85
2021/03/15 03:37:01;;;;;;;10.98;2.72;;;17.00;52.10;;;;;;4877154;29;20221;-85
2021/03/15 03:39:36;;;;;;;7.80;2.50;;;17.00;52.10;;;;;;4845685;29;20164;-85
2021/03/15 03:42:15;;;;;;;9.93;2.45;;;17.00;52.10;;;;;;4860958;29;20171;-84
2021/03/15 03:44:47;;;;;;;9.23;3.10;;;17.00;52.00;;;;;;4860191;29;20168;-84
2021/03/15 03:47:37;;;;;;;11.65;2.63;;;17.00;52.00;;;;;;4875998;29;20299;-85
2021/03/15 03:50:14;;;;;;;8.65;2.53;;;17.00;52.00;;;;;;4860483;29;20180;-85
2021/03/15 03:52:44;;;;;;;7.35;2.58;;;17.00;52.00;;;;;;4861318;29;20172;-84
2021/03/15 03:55:19;;;;;;;7.63;2.80;;;17.00;52.10;;;;;;4845524;29;20268;-84
2021/03/15 03:57:47;;;;;;;7.47;2.33;;;17.00;52.00;;;;;;4845959;29;20192;-85
2021/03/15 04:00:28;;;;;;;9.30;2.67;;;17.00;52.00;;;;;;4844855;29;20186;-85
2021/03/15 04:03:17;;;;;;;9.63;2.38;;;17.00;52.00;;;;;;4876478;29;20228;-85
2021/03/15 04:06:06;;;;;;;8.30;2.83;;;17.00;52.00;;;;;;4876720;29;20192;-85
2021/03/15 04:09:03;;;;;;;9.65;2.75;;;17.00;52.00;;;;;;4877483;29;20255;-85
2021/03/15 04:11:40;;;;;;;9.25;2.67;;;17.00;52.00;;;;;;4865523;29;20344;-84
2021/03/15 04:14:07;;;;;;;7.97;2.60;;;17.00;52.00;;;;;;4864174;29;20192;-84
2021/03/15 04:16:39;;;;;;;10.98;2.72;;;17.00;52.00;;;;;;4879665;29;20161;-84
2021/03/15 04:19:05;;;;;;;8.07;2.80;;;17.00;51.90;;;;;;4849491;29;20161;-84
2021/03/15 04:21:34;;;;;;;10.75;3.00;;;17.00;51.90;;;;;;4848173;29;20232;-85
2021/03/15 04:24:00;;;;;;;7.13;2.47;;;17.00;51.90;;;;;;4863856;29;20231;-84
2021/03/15 04:26:33;;;;;;;9.73;2.65;;;16.90;52.00;;;;;;4864062;29;20156;-85
2021/03/15 04:29:05;;;;;;;9.60;2.88;;;17.00;52.00;;;;;;4864445;29;20168;-85
2021/03/15 04:31:40;;;;;;;10.52;2.60;;;17.00;52.00;;;;;;4848780;29;20169;-85
2021/03/15 04:34:06;;;;;;;11.88;2.80;;;16.90;52.00;;;;;;4863060;29;20171;-85
2021/03/15 04:36:35;;;;;;;5.97;3.03;;;16.90;51.90;;;;;;4848681;29;20168;-84
2021/03/15 04:39:04;;;;;;;9.98;2.58;;;16.90;51.90;;;;;;4863834;29;20204;-84
2021/03/15 04:41:32;;;;;;;6.93;2.42;;;16.90;51.90;;;;;;4879273;29;20169;-85
2021/03/15 04:43:59;;;;;;;7.55;2.40;;;17.00;51.90;;;;;;4862987;29;20184;-85
2021/03/15 04:46:25;;;;;;;7.70;2.28;;;16.90;51.90;;;;;;4863014;29;20165;-84
2021/03/15 04:48:54;;;;;;;6.57;2.50;;;17.00;51.90;;;;;;4878918;29;20254;-85
2021/03/15 04:51:21;;;;;;;10.18;2.97;;;16.90;51.80;;;;;;4862891;29;20199;-84
2021/03/15 04:53:49;;;;;;;7.82;2.80;;;17.00;51.90;;;;;;4848523;29;20614;-85
2021/03/15 04:56:24;;;;;;;10.82;3.20;;;17.00;51.80;;;;;;4848306;29;20236;-85
2021/03/15 04:58:53;;;;;;;4.38;2.25;;;17.00;51.80;;;;;;4862505;29;20228;-85
2021/03/15 05:01:41;;;;;;;6.65;2.67;;;17.00;51.60;;;;;;4877834;29;20192;-84
2021/03/15 05:04:09;;;;;;;5.65;2.35;;;17.00;51.30;;;;;;4875525;29;20196;-84
2021/03/15 05:06:43;;;;;;;6.10;2.38;;;17.10;50.90;;;;;;4863114;29;20169;-84
2021/03/15 05:09:11;;;;;;;7.50;2.30;;;17.20;50.20;;;;;;4864105;29;20168;-84
2021/03/15 05:11:57;;;;;;;5.82;2.20;;;17.20;50.30;;;;;;4847750;29;20199;-85
2021/03/15 05:14:33;;;;;;;7.30;2.45;;;17.20;50.10;;;;;;4878037;29;20191;-84
2021/03/15 05:17:04;;;;;;;6.82;2.47;;;17.10;49.90;;;;;;4862434;29;20678;-85
2021/03/15 05:19:39;;;;;;;10.00;2.38;;;17.10;49.40;;;;;;4862909;29;20198;-84
2021/03/15 05:22:10;;;;;;;7.65;2.40;;;17.20;49.00;;;;;;4878109;29;20160;-85
2021/03/15 05:24:38;;;;;;;4.85;2.28;;;17.20;48.70;;;;;;4862645;29;20263;-84
2021/03/15 05:27:17;;;;;;;5.15;2.10;;;17.20;48.80;;;;;;4862676;29;20179;-84
2021/03/15 05:29:45;;;;;;;5.93;2.25;;;17.20;48.80;;;;;;4878200;29;20231;-85
2021/03/15 05:32:13;;;;;;;6.35;2.00;;;17.20;48.90;;;;;;4878665;29;20168;-84
2021/03/15 05:34:40;;;;;;;6.85;1.88;;;17.20;48.90;;;;;;4862928;29;20192;-85
2021/03/15 05:37:15;;;;;;;6.50;2.53;;;17.20;48.90;;;;;;4847262;29;20176;-84
2021/03/15 05:39:50;;;;;;;4.30;1.85;;;17.10;48.80;;;;;;4862557;29;20172;-84
2021/03/15 05:42:51;;;;;;;6.50;2.40;;;17.20;48.50;;;;;;4878088;29;20171;-84
2021/03/15 05:45:39;;;;;;;6.28;2.65;;;17.20;48.50;;;;;;4877546;29;20632;-85
2021/03/15 05:48:31;;;;;;;4.05;1.98;;;17.20;48.50;;;;;;4878144;29;20231;-84
2021/03/15 05:51:23;;;;;;;4.13;1.92;;;17.20;48.40;;;;;;4894168;29;20226;-84
2021/03/15 05:54:09;;;;;;;6.00;2.20;;;17.20;48.50;;;;;;4866307;29;20188;-84
2021/03/15 05:57:03;;;;;;;7.03;2.15;;;17.20;48.40;;;;;;4877507;29;20240;-85
2021/03/15 05:59:52;;;;;;;4.80;1.98;;;17.20;48.40;;;;;;4877429;29;20176;-84
2021/03/15 06:02:56;;;;;;;4.65;1.80;;;17.20;48.10;;;;;;4877868;29;20172;-84
2021/03/15 06:05:31;;;;;;;7.65;2.25;;;17.20;47.90;;;;;;4893883;29;20168;-85
2021/03/15 06:08:06;;;;;;;4.10;2.10;;;17.20;48.10;;;;;;4844793;29;20180;-83
2021/03/15 06:10:35;;;;;;;2.67;1.88;;;17.20;48.00;;;;;;4842642;29;20251;-85
2021/03/15 06:13:28;;;;;;;3.92;2.28;;;17.20;47.90;;;;;;4855969;29;20253;-85
2021/03/15 06:15:54;;;;;;;5.22;2.10;;;17.20;47.90;;;;;;4853336;29;20237;-85
2021/03/15 06:18:27;;;;;;;3.53;1.70;;;17.20;47.70;;;;;;4828012;29;20173;-85
2021/03/15 06:20:54;;;;;;;5.72;2.15;;;17.20;47.70;;;;;;4843087;29;20165;-85
2021/03/15 06:23:33;;;;;;;5.95;2.05;;;17.20;47.70;;;;;;4843412;29;20181;-85
2021/03/15 06:26:13;;;;;;;5.38;1.98;;;17.20;47.60;;;;;;4828825;29;20169;-85
2021/03/15 06:28:44;;;;;;;5.65;2.30;;;17.20;47.30;;;;;;4858071;29;20173;-85
2021/03/15 06:31:09;;;;;;;6.80;2.28;;;17.20;47.50;;;;;;4827781;29;20176;-84
2021/03/15 06:33:40;;;;;;;4.35;2.25;;;17.20;47.40;;;;;;4857628;29;20184;-85
2021/03/15 06:36:12;;;;;;;3.33;2.08;;;17.20;47.50;;;;;;4843685;29;20591;-84
2021/03/15 06:38:38;;;;;;;3.80;2.10;;;17.20;47.60;;;;;;4842796;29;20171;-85
2021/03/15 06:41:07;;;;;;;3.08;1.77;;;17.20;47.60;;;;;;4842561;29;20189;-84
2021/03/15 06:43:42;;;;;;;3.60;1.88;;;17.20;47.30;;;;;;4827669;29;20267;-85
2021/03/15 06:46:15;;;;;;;4.63;2.00;;;17.20;47.40;;;;;;4857392;29;20168;-85
2021/03/15 06:48:42;;;;;;;7.63;2.60;;;17.10;47.50;;;;;;4846705;29;20188;-85
2021/03/15 06:51:30;;;;;;;6.40;2.40;;;17.20;47.50;;;;;;4875485;29;20179;-85
2021/03/15 06:57:59;;;;;;;9.07;2.10;;;17.20;47.60;;;;;;4892500;29;20179;-85
2021/03/15 07:00:46;;;;;;;9.05;2.40;;;17.10;47.40;;;;;;4892384;29;20163;-85
2021/03/15 07:03:30;;;;;;;4.60;1.75;;;17.20;47.30;;;;;;4857556;29;20176;-85
2021/03/15 07:06:09;;;;;;;4.28;2.50;;;17.20;47.10;;;;;;4859904;29;20312;-85
2021/03/15 07:08:52;;;;;;;5.50;1.80;;;17.30;47.10;;;;;;4845805;29;20272;-85
2021/03/15 07:11:40;;;;;;;4.60;1.70;;;17.20;47.10;;;;;;4845297;29;20190;-85
2021/03/15 07:17:32;;;;;;;6.85;2.20;;;17.20;47.10;;;;;;4890702;29;20663;-84
2021/03/15 07:24:18;;;;;;;4.85;2.03;;;17.20;47.20;;;;;;4889150;29;20206;-84
2021/03/15 07:26:44;;;;;;;4.50;1.60;;;17.20;47.00;;;;;;4869899;29;20168;-85
2021/03/15 07:35:54;;;;;;;2.80;1.77;;;17.40;46.50;;;;;;4885293;29;20207;-85
2021/03/15 07:39:11;;;;;;;4.20;1.92;;;17.30;46.40;;;;;;4853841;29;20172;-83
2021/03/15 07:42:03;;;;;;;6.00;1.90;;;17.40;46.30;;;;;;4888051;29;20224;-83
2021/03/15 07:44:34;;;;;;;6.07;2.22;;;17.40;46.20;;;;;;4891191;29;20172;-84
2021/03/15 07:47:49;;;;;;;4.93;2.13;;;17.50;46.30;;;;;;4860310;29;20238;-83
2021/03/15 07:50:28;;;;;;;4.10;2.42;;;17.40;46.20;;;;;;4861114;29;20184;-83
2021/03/15 07:53:18;;;;;;;4.07;1.88;;;17.40;45.70;;;;;;4863348;29;20175;-83
2021/03/15 09:19:39;;;;;;;3.10;1.50;;;17.60;45.40;;;;;;5901867;23;20224;-81
2021/03/15 09:22:27;;;;;;;3.35;1.80;;;17.60;46.10;;;;;;4868136;29;20251;-81
2021/03/15 09:25:44;;;;;;;4.00;1.90;;;17.50;46.20;;;;;;4854403;29;20181;-81
2021/03/15 09:32:13;;;;;;;2.35;1.40;;;17.50;46.20;;;;;;4865603;29;20204;-81
2021/03/15 09:35:23;;;;;;;1.83;1.40;;;17.50;45.90;;;;;;4849812;29;20208;-82
2021/03/15 09:45:32;;;;;;;1.88;1.50;;;17.70;45.70;;;;;;4864080;29;20179;-81
2021/03/15 09:48:39;;;;;;;5.03;1.75;;;17.70;45.60;;;;;;4862776;29;20152;-82
2021/03/15 10:19:14;;;;;;;8.65;1.98;;;17.70;45.20;;;;;;4823925;29;20189;-81
2021/03/15 10:25:14;;;;;;;4.43;1.65;;;17.90;44.70;;;;;;4806298;29;20234;-81
2021/03/15 10:31:42;;;;;;;4.43;1.95;;;17.80;45.10;;;;;;4753147;30;20276;-82
2021/03/15 10:41:20;;;;;;;5.25;1.85;;;17.80;44.80;;;;;;4744083;30;20265;-81
2021/03/15 10:51:15;;;;;;;7.22;1.88;;;17.80;44.50;;;;;;4735274;30;20196;-81
2021/03/15 10:58:17;;;;;;;;;;;;;;;;;;;;;
2021/03/15 11:07:27;;;;;;;5.53;1.65;;;17.90;44.80;;;;;;4817926;29;20699;-81
2021/03/15 11:10:28;;;;;;;9.70;2.10;;;17.90;44.80;;;;;;4810370;29;20199;-81
2021/03/15 11:13:50;;;;;;;3.75;1.58;;;17.90;44.70;;;;;;4840847;29;20176;-82
2021/03/15 11:16:30;;;;;;;3.92;1.88;;;17.90;44.60;;;;;;4795037;29;20274;-81
2021/03/15 11:19:05;;;;;;;7.13;1.65;;;17.90;44.40;;;;;;4774394;29;20301;-81
2021/03/15 11:21:37;;;;;;;6.55;1.60;;;18.00;44.30;;;;;;4788654;29;20229;-81
2021/03/15 11:24:06;;;;;;;7.60;1.80;;;18.00;44.20;;;;;;4774479;29;20182;-81
2021/03/15 11:26:43;;;;;;;4.07;1.48;;;18.00;44.10;;;;;;4788874;29;20191;-81
2021/03/15 11:33:23;;;;;;;3.25;1.67;;;17.90;44.30;;;;;;4803895;29;20181;-81
2021/03/15 11:56:52;;;;;;;8.15;1.70;;;18.00;44.00;;;;;;4842733;29;20216;-82
2021/03/15 12:06:13;;;;;;;2.90;1.70;;;18.20;42.70;;;;;;4751753;30;20261;-82
2021/03/15 12:08:52;;;;;;;4.25;1.70;;;18.20;43.00;;;;;;4770731;30;20679;-81
2021/03/15 12:11:23;;;;;;;6.32;1.80;;;18.20;43.00;;;;;;4778336;30;20287;-81
2021/03/15 12:13:52;;;;;;;4.75;1.67;;;18.10;43.30;;;;;;4785205;30;20180;-81
2021/03/15 12:16:23;;;;;;;2.80;1.58;;;18.00;43.40;;;;;;4770442;30;20217;-81
2021/03/15 12:19:01;;;;;;;3.20;1.70;;;18.00;43.50;;;;;;4764320;30;20185;-81
2021/03/15 12:21:38;;;;;;;2.88;1.60;;;18.10;43.50;;;;;;4759480;30;20272;-81
2021/03/15 12:24:17;;;;;;;2.97;1.30;;;18.00;43.20;;;;;;4770487;30;20197;-81
2021/03/15 12:26:57;;;;;;;8.25;1.65;;;18.00;43.40;;;;;;4770962;30;20183;-80
2021/03/15 12:33:08;;;;;;;2.92;1.45;;;17.90;43.40;;;;;;4789080;30;20203;-81
2021/03/15 12:35:44;;;;;;;3.10;1.55;;;18.00;43.20;;;;;;4802923;29;20231;-81
2021/03/15 12:38:44;;;;;;;3.47;1.83;;;18.00;43.30;;;;;;4863201;29;20172;-81
2021/03/15 12:41:22;;;;;;;3.63;2.05;;;17.90;43.40;;;;;;4847578;29;20606;-81
2021/03/15 12:44:03;;;;;;;3.70;1.50;;;17.90;43.50;;;;;;4849207;29;20187;-81
2021/03/15 12:46:34;;;;;;;2.20;1.20;;;17.90;43.30;;;;;;4847308;29;20267;-81
2021/03/15 12:49:00;;;;;;;2.00;1.80;;;17.90;43.40;;;;;;4832486;29;20196;-81
2021/03/15 12:51:30;;;;;;;2.88;1.50;;;17.90;43.40;;;;;;4831979;29;20200;-81
2021/03/15 12:54:10;;;;;;;3.45;1.83;;;17.90;43.30;;;;;;4847333;29;20173;-81
2021/03/15 12:56:41;;;;;;;2.22;1.55;;;17.80;43.40;;;;;;4847545;29;20307;-81
2021/03/15 13:41:20;;;;;;;2.13;1.40;;;17.80;43.40;;;;;;4863012;29;20286;-82
2021/03/15 13:46:43;;;;;;;2.67;1.67;;;17.80;43.20;;;;;;4862635;29;20583;-82
2021/03/15 13:49:18;;;;;;;2.65;1.42;;;17.80;43.30;;;;;;4846629;29;20264;-81
2021/03/15 13:51:52;;;;;;;3.22;1.52;;;17.80;43.10;;;;;;4845812;29;20176;-82
2021/03/15 13:54:18;;;;;;;4.30;1.75;;;17.90;43.30;;;;;;4831595;29;20540;-81
2021/03/15 13:56:44;;;;;;;1.98;1.65;;;17.90;43.20;;;;;;4830743;29;20199;-81
2021/03/15 13:59:16;;;;;;;6.70;3.10;;;17.90;43.00;;;;;;4861210;29;20189;-82
2021/03/15 14:01:46;;;;;;;6.55;2.83;;;17.90;43.40;;;;;;4845815;29;20180;-81
2021/03/15 14:04:12;;;;;;;4.97;2.25;;;17.80;43.50;;;;;;4876354;29;20203;-82
2021/03/15 14:06:37;;;;;;;3.75;2.17;;;17.80;43.70;;;;;;4830709;29;20176;-81
2021/03/15 14:12:54;;;;;;;3.03;1.88;;;17.90;43.50;;;;;;4862270;29;20621;-81
2021/03/15 14:15:45;;;;;;;2.67;1.80;;;18.00;43.20;;;;;;4776018;29;20226;-81
2021/03/15 14:18:21;;;;;;;3.30;1.90;;;17.90;43.10;;;;;;4776028;29;20209;-82
2021/03/15 14:24:12;;;;;;;2.80;2.00;;;17.90;43.20;;;;;;4805701;29;20247;-82
2021/03/15 14:27:04;;;;;;;3.20;1.90;;;17.90;43.30;;;;;;4789191;29;20191;-81
2021/03/15 14:29:31;;;;;;;3.13;2.30;;;17.90;43.30;;;;;;4803256;29;20164;-82
2021/03/15 14:35:24;;;;;;;3.00;2.05;;;17.80;43.90;;;;;;4806523;29;20310;-83
2021/03/15 14:58:48;;;;;;;3.67;2.10;;;17.90;43.60;;;;;;4805356;29;20173;-81
2021/03/15 15:01:22;;;;;;;2.58;2.22;;;17.90;43.60;;;;;;4775953;30;20192;-83
2021/03/15 15:03:48;;;;;;;3.60;2.30;;;17.90;43.50;;;;;;4776592;30;20202;-82
2021/03/15 15:06:20;;;;;;;3.22;2.15;;;17.90;43.60;;;;;;4776006;30;20190;-83
2021/03/15 15:08:51;;;;;;;3.70;2.33;;;17.80;43.60;;;;;;4762001;30;20196;-83
2021/03/15 15:11:19;;;;;;;3.10;2.13;;;17.80;43.70;;;;;;4791046;30;20258;-82
2021/03/15 15:14:05;;;;;;;2.65;2.10;;;17.80;43.80;;;;;;4780406;30;20170;-82
2021/03/15 15:24:46;;;;;;;;;;;;;;;;;;;;;
2021/03/15 15:28:13;;;;;;;2.47;2.00;;;17.80;43.50;;;;;;4737079;30;20260;-83
2021/03/15 15:30:39;;;;;;;2.10;1.85;;;17.80;43.90;;;;;;4688212;30;20347;-82
2021/03/15 15:33:38;;;;;;;2.80;2.22;;;17.80;44.00;;;;;;4672081;30;20687;-81
2021/03/15 15:36:09;;;;;;;3.72;2.30;;;17.80;43.90;;;;;;4671224;30;20223;-82
2021/03/15 15:38:36;;;;;;;3.60;2.30;;;17.80;44.20;;;;;;4709054;30;20242;-82
2021/03/15 15:41:03;;;;;;;4.57;2.30;;;17.80;44.20;;;;;;4740164;30;20667;-82
2021/03/15 15:43:34;;;;;;;2.97;2.10;;;17.80;43.70;;;;;;4707470;30;20323;-82
2021/03/15 15:46:27;;;;;;;2.70;2.22;;;17.90;44.10;;;;;;4707089;30;20622;-84
2021/03/15 15:49:24;;;;;;;3.00;2.13;;;17.80;44.40;;;;;;4734288;30;20197;-81
2021/03/15 15:52:23;;;;;;;;;;;;;;;;;;;;;
2021/03/15 16:21:54;;;;;;;4.57;2.20;;;18.00;43.40;;;;;;4783259;30;20819;-80
2021/03/15 16:24:48;;;;;;;4.47;2.20;;;18.00;43.30;;;;;;4771239;30;20180;-82
2021/03/15 16:27:28;;;;;;;3.05;2.13;;;18.00;44.00;;;;;;4766372;30;20194;-80
2021/03/15 16:29:54;;;;;;;2.65;2.08;;;18.00;44.50;;;;;;4766209;30;20226;-82
2021/03/15 16:32:21;;;;;;;2.10;1.90;;;18.00;44.30;;;;;;4766556;30;20227;-81
2021/03/15 16:34:47;;;;;;;4.47;2.50;;;18.00;43.80;;;;;;4856109;29;20197;-81
2021/03/15 16:37:14;;;;;;;1.90;1.65;;;18.10;43.90;;;;;;4856494;29;20181;-81
2021/03/15 16:39:49;;;;;;;4.63;2.20;;;18.10;43.50;;;;;;4861874;29;20173;-83
2021/03/15 16:42:17;;;;;;;4.65;2.30;;;18.10;43.40;;;;;;4860323;29;20176;-82
2021/03/15 16:44:45;;;;;;;4.70;2.25;;;18.10;43.30;;;;;;4847246;29;20149;-82
2021/03/15 16:47:13;;;;;;;3.25;2.10;;;18.10;43.30;;;;;;4879655;29;20200;-83
2021/03/15 16:49:41;;;;;;;5.35;1.92;;;18.20;43.80;;;;;;4843968;29;20174;-82
2021/03/15 16:52:19;;;;;;;2.72;1.90;;;18.10;43.40;;;;;;4848437;29;20638;-83
2021/03/15 16:54:54;;;;;;;3.63;2.10;;;18.20;43.50;;;;;;4845694;29;20172;-81
2021/03/15 16:57:28;;;;;;;5.82;2.13;;;18.20;43.00;;;;;;4861213;29;20221;-82
2021/03/15 17:00:01;;;;;;;3.30;1.48;;;18.20;43.30;;;;;;4820762;29;20177;-83
2021/03/15 17:02:31;;;;;;;4.13;1.83;;;18.30;43.40;;;;;;4860727;29;20637;-83
2021/03/15 17:05:12;;;;;;;5.10;1.92;;;18.30;43.80;;;;;;4845456;29;20185;-83
2021/03/15 17:07:38;;;;;;;4.55;1.95;;;18.30;43.10;;;;;;4857618;29;20281;-83
2021/03/15 17:10:34;;;;;;;8.02;2.00;;;18.30;43.50;;;;;;4855270;29;20168;-84
2021/03/15 17:13:00;;;;;;;3.38;2.03;;;18.30;43.10;;;;;;4839824;29;20169;-83
2021/03/15 17:15:26;;;;;;;4.28;2.10;;;18.30;43.50;;;;;;4841891;29;20228;-82
2021/03/15 17:17:54;;;;;;;2.10;1.83;;;18.30;43.20;;;;;;4856244;29;20190;-82
2021/03/15 17:20:20;;;;;;;5.32;2.20;;;18.30;43.20;;;;;;4850260;29;20177;-82
2021/03/15 17:22:54;;;;;;;4.28;1.98;;;18.30;43.20;;;;;;4856198;29;20161;-83
2021/03/15 17:25:27;;;;;;;3.40;2.17;;;18.30;43.90;;;;;;4842088;29;20266;-83
2021/03/15 17:28:01;;;;;;;8.68;2.05;;;18.30;43.50;;;;;;4841390;29;20189;-83
2021/03/15 17:30:27;;;;;;;7.45;2.40;;;18.20;44.20;;;;;;4837581;29;20169;-82
2021/03/15 17:32:55;;;;;;;4.30;2.03;;;18.20;44.00;;;;;;4822070;29;20245;-83
2021/03/15 17:35:33;;;;;;;7.20;2.20;;;18.20;43.80;;;;;;4824155;29;20300;-83
2021/03/15 17:38:09;;;;;;;7.18;2.60;;;18.30;44.30;;;;;;4838525;29;20352;-83
2021/03/15 17:40:59;;;;;;;8.63;2.28;;;18.30;43.90;;;;;;4827594;29;20172;-84
2021/03/15 17:43:36;;;;;;;4.60;2.35;;;18.30;43.80;;;;;;4824983;29;20326;-85
2021/03/15 17:47:00;;;;;;;4.90;2.15;;;18.30;43.50;;;;;;4826073;29;20190;-84
2021/03/15 17:49:29;;;;;;;8.48;2.10;;;18.30;43.80;;;;;;4845417;29;20176;-84
2021/03/15 17:52:35;;;;;;;6.63;2.28;;;18.40;43.40;;;;;;4827398;29;20196;-84
2021/03/15 17:55:08;;;;;;;4.85;2.33;;;18.30;43.30;;;;;;4826889;29;20296;-84
2021/03/15 18:01:06;;;;;;;4.43;2.08;;;18.30;44.20;;;;;;4860871;29;20193;-83
2021/03/15 18:03:51;;;;;;;5.40;2.22;;;18.30;43.70;;;;;;4844094;29;20161;-84
2021/03/15 18:06:55;;;;;;;;;;;;;;;;;;;;;
2021/03/15 18:09:41;;;;;;;8.20;2.20;;;18.30;44.10;;;;;;4865961;29;20157;-84
2021/03/15 18:12:14;;;;;;;9.82;2.47;;;18.30;44.20;;;;;;4832795;29;20185;-84
2021/03/15 18:14:42;;;;;;;8.35;2.42;;;18.30;43.70;;;;;;4806043;29;20293;-83
2021/03/15 18:17:12;;;;;;;8.05;1.88;;;18.30;43.80;;;;;;4802631;29;20202;-82
2021/03/15 18:19:38;;;;;;;7.88;2.28;;;18.30;44.00;;;;;;4803295;29;20190;-82
2021/03/15 18:22:04;;;;;;;13.10;2.60;;;18.30;43.90;;;;;;4803224;29;20219;-82
2021/03/15 18:24:31;;;;;;;22.02;3.13;;;18.40;44.20;;;;;;4801103;29;20195;-82
2021/03/15 18:27:02;;;;;;;12.98;2.65;;;18.30;44.30;;;;;;4801861;29;20183;-82
2021/03/15 18:29:41;;;;;;;16.33;3.20;;;18.30;44.10;;;;;;4801688;29;20221;-81
2021/03/15 18:32:08;;;;;;;17.08;2.72;;;18.30;44.40;;;;;;4830320;29;20266;-82
2021/03/15 18:34:36;;;;;;;18.20;3.20;;;18.30;43.90;;;;;;4820240;29;20288;-82
2021/03/15 18:37:05;;;;;;;18.10;2.80;;;18.30;44.70;;;;;;4801050;29;20186;-81
2021/03/15 18:39:32;;;;;;;13.32;2.60;;;18.30;44.60;;;;;;4819241;29;20197;-82
2021/03/15 18:42:08;;;;;;;12.40;2.45;;;18.30;44.20;;;;;;4835961;29;20178;-82
2021/03/15 18:44:35;;;;;;;17.90;2.78;;;18.30;44.70;;;;;;4835258;29;20165;-82
2021/03/15 18:47:05;;;;;;;18.02;3.03;;;18.30;45.10;;;;;;4857075;29;20204;-81
2021/03/15 18:49:32;;;;;;;14.30;3.88;;;18.20;45.10;;;;;;4857369;29;20157;-82
2021/03/15 18:52:01;;;;;;;12.80;2.97;;;18.10;45.10;;;;;;4845209;29;20180;-82
2021/03/15 18:54:27;;;;;;;16.80;2.85;;;18.10;45.30;;;;;;4855326;29;20161;-82